Time;durP1;ratioP1;P1;durP2;ratioP2;P2;SDS_P1;SDS_P2;PMS_P1;PMS_P2;Temp;Humidity;BMP_temperature;BMP_pressure;BME280_temperature;BME280_humidity;BME280_pressure;Samples;Min_cycle;Max_cycle;Signal;HPM_P1;HPM_P2
2022/10/02 00:01:53;;;;;;;;;;;;;;;10.55;64.04;99180.69;6183432;23;828;-77
2022/10/02 00:04:19;;;;;;;;;;;;;;;10.30;65.11;99184.75;6155814;23;1260;-77
2022/10/02 00:06:46;;;;;;;;;;;;;;;10.26;65.38;99180.88;6153481;23;1138;-77
2022/10/02 00:09:13;;;;;;;;;;;;;;;10.25;65.12;99176.56;6183474;23;959;-77
2022/10/02 00:11:39;;;;;;;;;;;;;;;10.35;64.88;99186.66;6158547;23;1011;-77
2022/10/02 00:14:06;;;;;;;;;;;;;;;10.25;65.22;99195.41;6179791;23;792;-77
2022/10/02 00:16:32;;;;;;;;;;;;;;;10.04;65.90;99186.25;6181101;23;1934;-77
2022/10/02 00:18:59;;;;;;;;;;;;;;;10.18;65.59;99181.34;6181341;23;837;-77
2022/10/02 00:21:26;;;;;;;;;;;;;;;10.10;65.57;99185.25;6178705;23;997;-77
2022/10/02 00:23:52;;;;;;;;;;;;;;;10.08;65.59;99187.38;6178657;23;1272;-76
2022/10/02 00:26:19;;;;;;;;;;;;;;;10.42;64.70;99182.72;6180470;23;1029;-77
2022/10/02 00:28:45;;;;;;;;;;;;;;;10.19;65.48;99182.94;6155814;23;1125;-77
2022/10/02 00:31:12;;;;;;;;;;;;;;;10.31;64.94;99189.06;6183728;23;1002;-77
2022/10/02 00:33:38;;;;;;;;;;;;;;;10.16;65.20;99186.94;6183691;23;971;-76
2022/10/02 00:36:05;;;;;;;;;;;;;;;10.12;65.50;99195.78;6155408;23;1935;-77
2022/10/02 00:38:32;;;;;;;;;;;;;;;10.23;65.25;99189.44;6185434;23;895;-77
2022/10/02 00:40:59;;;;;;;;;;;;;;;10.19;65.29;99191.84;6183816;23;1011;-76
2022/10/02 00:43:25;;;;;;;;;;;;;;;10.00;65.95;99196.72;6183157;23;998;-77
2022/10/02 00:45:52;;;;;;;;;;;;;;;10.08;65.56;99197.34;6183888;23;959;-77
2022/10/02 00:48:18;;;;;;;;;;;;;;;10.30;64.90;99192.00;6179933;23;955;-77
2022/10/02 00:50:45;;;;;;;;;;;;;;;10.21;65.27;99183.53;6182482;23;730;-77
2022/10/02 00:53:11;;;;;;;;;;;;;;;10.19;65.28;99186.44;6183159;23;817;-77
2022/10/02 00:55:38;;;;;;;;;;;;;;;10.16;65.47;99202.28;6182364;23;979;-77
2022/10/02 00:58:05;;;;;;;;;;;;;;;10.16;65.32;99194.22;6183772;23;1932;-76
2022/10/02 01:00:31;;;;;;;;;;;;;;;9.94;66.09;99203.09;6182895;23;947;-77
2022/10/02 01:02:58;;;;;;;;;;;;;;;9.95;66.10;99207.41;6183452;23;785;-77
2022/10/02 01:05:26;;;;;;;;;;;;;;;9.93;66.29;99211.41;6156111;23;1207;-77
2022/10/02 01:07:52;;;;;;;;;;;;;;;9.94;66.14;99195.03;6155653;23;1156;-77
2022/10/02 01:10:21;;;;;;;;;;;;;;;9.90;66.11;99204.63;6184268;23;975;-77
2022/10/02 01:12:47;;;;;;;;;;;;;;;9.97;66.26;99205.28;6184140;23;820;-76
2022/10/02 01:15:14;;;;;;;;;;;;;;;9.99;66.01;99208.53;6183034;23;987;-76
2022/10/02 01:17:40;;;;;;;;;;;;;;;9.92;66.05;99204.41;6156317;23;1944;-77
2022/10/02 01:20:07;;;;;;;;;;;;;;;9.88;66.31;99208.63;6183292;23;764;-76
2022/10/02 01:22:33;;;;;;;;;;;;;;;9.83;66.42;99208.56;6182951;23;947;-77
2022/10/02 01:25:00;;;;;;;;;;;;;;;9.86;66.15;99216.97;6183428;23;1256;-77
2022/10/02 01:27:26;;;;;;;;;;;;;;;9.82;66.43;99213.13;6183178;23;856;-76
2022/10/02 01:29:54;;;;;;;;;;;;;;;9.87;66.34;99215.06;6157933;23;998;-77
2022/10/02 01:32:20;;;;;;;;;;;;;;;9.80;66.61;99217.94;6156365;23;1231;-76
2022/10/02 01:34:47;;;;;;;;;;;;;;;9.98;65.84;99216.84;6181305;23;1052;-77
2022/10/02 01:37:13;;;;;;;;;;;;;;;9.98;65.90;99225.72;6181179;23;1943;-77
2022/10/02 01:39:40;;;;;;;;;;;;;;;10.12;65.56;99226.19;6157329;23;955;-77
2022/10/02 01:42:06;;;;;;;;;;;;;;;9.93;65.96;99235.59;6185561;23;808;-77
2022/10/02 01:44:33;;;;;;;;;;;;;;;9.83;66.37;99227.41;6185691;23;975;-77
2022/10/02 01:47:00;;;;;;;;;;;;;;;9.81;66.52;99241.06;6184043;23;963;-76
2022/10/02 01:49:26;;;;;;;;;;;;;;;9.84;66.26;99227.13;6185636;23;963;-77
2022/10/02 01:51:53;;;;;;;;;;;;;;;9.89;65.93;99237.97;6185540;23;951;-77
2022/10/02 01:54:19;;;;;;;;;;;;;;;9.83;66.35;99236.28;6185043;23;951;-77
2022/10/02 01:56:46;;;;;;;;;;;;;;;9.83;66.25;99238.16;6184415;23;1893;-77
2022/10/02 01:59:12;;;;;;;;;;;;;;;9.86;66.31;99243.03;6183852;23;1018;-76
2022/10/02 02:01:39;;;;;;;;;;;;;;;9.89;66.26;99246.03;6157327;23;1015;-77
2022/10/02 02:04:05;;;;;;;;;;;;;;;9.78;66.33;99245.06;6183225;23;848;-76
2022/10/02 02:06:32;;;;;;;;;;;;;;;9.75;66.65;99244.75;6183995;23;1014;-77
2022/10/02 02:08:58;;;;;;;;;;;;;;;9.75;66.46;99256.31;6156063;23;1234;-76
2022/10/02 02:11:25;;;;;;;;;;;;;;;9.75;66.59;99259.00;6160162;23;1131;-76
2022/10/02 02:13:51;;;;;;;;;;;;;;;9.87;66.14;99258.09;6180273;23;1042;-76
2022/10/02 02:16:18;;;;;;;;;;;;;;;9.89;66.06;99261.38;6158529;23;1901;-77
2022/10/02 02:18:45;;;;;;;;;;;;;;;9.80;66.30;99255.59;6187024;23;970;-77
2022/10/02 02:21:11;;;;;;;;;;;;;;;9.78;66.37;99261.19;6187251;23;950;-77
2022/10/02 02:23:38;;;;;;;;;;;;;;;9.72;66.59;99256.00;6159914;23;1256;-76
2022/10/02 02:26:04;;;;;;;;;;;;;;;9.71;66.78;99249.00;6186851;23;986;-77
2022/10/02 02:28:31;;;;;;;;;;;;;;;9.73;66.77;99254.94;6187967;23;1052;-76
2022/10/02 02:33:25;;;;;;;;;;;;;;;9.73;66.52;99260.31;6124600;23;1223;-77
2022/10/02 02:35:51;;;;;;;;;;;;;;;9.74;66.68;99265.44;6129077;23;1268;-77
2022/10/02 02:38:18;;;;;;;;;;;;;;;9.76;66.28;99263.34;6155135;23;1906;-77
2022/10/02 02:40:44;;;;;;;;;;;;;;;9.71;66.46;99265.13;6154310;23;1046;-77
2022/10/02 02:43:11;;;;;;;;;;;;;;;9.71;66.51;99267.81;6128101;23;1161;-77
2022/10/02 02:45:37;;;;;;;;;;;;;;;9.73;66.50;99274.56;6153498;23;951;-76
2022/10/02 02:48:04;;;;;;;;;;;;;;;9.72;66.37;99281.00;6127162;23;1330;-77
2022/10/02 02:50:31;;;;;;;;;;;;;;;9.81;66.24;99277.91;6154586;23;861;-76
2022/10/02 02:52:57;;;;;;;;;;;;;;;9.72;66.63;99278.31;6155146;23;1006;-76
2022/10/02 02:55:23;;;;;;;;;;;;;;;9.72;66.46;99278.31;6152769;23;1023;-76
2022/10/02 02:57:50;;;;;;;;;;;;;;;9.70;66.55;99271.56;6128154;23;1909;-76
2022/10/02 03:00:18;;;;;;;;;;;;;;;9.69;66.56;99276.13;6153542;23;936;-77
2022/10/02 03:02:45;;;;;;;;;;;;;;;9.69;66.62;99276.13;6151541;23;975;-77
2022/10/02 03:05:11;;;;;;;;;;;;;;;9.77;66.38;99280.28;6155463;23;959;-77
2022/10/02 03:07:38;;;;;;;;;;;;;;;9.71;66.63;99282.06;6154655;23;983;-76
2022/10/02 03:10:04;;;;;;;;;;;;;;;9.71;66.49;99276.69;6151909;23;1034;-76
2022/10/02 03:12:32;;;;;;;;;;;;;;;9.70;66.53;99282.31;6156124;23;967;-77
2022/10/02 03:14:58;;;;;;;;;;;;;;;9.67;66.52;99285.47;6155205;23;958;-77
2022/10/02 03:17:25;;;;;;;;;;;;;;;9.74;66.38;99286.16;6153783;23;1901;-77
2022/10/02 03:19:51;;;;;;;;;;;;;;;9.67;66.68;99286.28;6129457;23;1258;-76
2022/10/02 03:22:18;;;;;;;;;;;;;;;9.67;66.66;99290.84;6129147;23;1412;-76
2022/10/02 03:24:44;;;;;;;;;;;;;;;9.72;66.32;99296.31;6127144;23;1026;-76
2022/10/02 03:27:11;;;;;;;;;;;;;;;9.69;66.39;99292.25;6150709;23;1019;-77
2022/10/02 03:29:37;;;;;;;;;;;;;;;9.69;66.56;99289.56;6152925;23;971;-77
2022/10/02 03:32:04;;;;;;;;;;;;;;;9.67;66.49;99288.97;6152903;23;1283;-77
2022/10/02 03:34:30;;;;;;;;;;;;;;;9.69;66.43;99288.75;6153493;23;979;-76
2022/10/02 03:36:57;;;;;;;;;;;;;;;9.69;66.53;99300.31;6155019;23;1948;-76
2022/10/02 03:39:23;;;;;;;;;;;;;;;9.74;66.35;99297.72;6155409;23;1031;-76
2022/10/02 03:41:50;;;;;;;;;;;;;;;9.66;66.63;99303.50;6151633;23;960;-76
2022/10/02 03:44:16;;;;;;;;;;;;;;;9.64;66.76;99302.91;6155201;23;1015;-77
2022/10/02 03:46:43;;;;;;;;;;;;;;;9.65;66.59;99309.94;6126474;23;1224;-77
2022/10/02 03:49:09;;;;;;;;;;;;;;;9.65;66.72;99309.13;6151448;23;1023;-76
2022/10/02 03:51:36;;;;;;;;;;;;;;;9.75;66.24;99309.28;6153935;23;904;-76
2022/10/02 03:54:03;;;;;;;;;;;;;;;9.66;66.46;99310.75;6154539;23;987;-77
2022/10/02 03:56:29;;;;;;;;;;;;;;;9.66;66.64;99316.94;6127418;23;1944;-77
2022/10/02 03:58:56;;;;;;;;;;;;;;;9.68;66.57;99311.31;6154036;23;995;-76
2022/10/02 04:01:22;;;;;;;;;;;;;;;9.67;66.65;99310.50;6153306;23;1046;-76
2022/10/02 04:03:49;;;;;;;;;;;;;;;9.65;66.62;99315.31;6126954;23;975;-76
2022/10/02 04:06:15;;;;;;;;;;;;;;;9.66;66.53;99313.44;6127235;23;1153;-76
2022/10/02 04:08:42;;;;;;;;;;;;;;;9.64;66.41;99315.53;6127920;23;1342;-76
2022/10/02 04:11:08;;;;;;;;;;;;;;;9.67;66.48;99323.13;6153712;23;967;-76
2022/10/02 04:13:35;;;;;;;;;;;;;;;9.64;66.56;99320.91;6154551;23;986;-76
2022/10/02 04:16:01;;;;;;;;;;;;;;;9.64;66.52;99324.41;6154087;23;979;-74
2022/10/02 04:18:28;;;;;;;;;;;;;;;9.61;66.70;99321.41;6152876;23;1901;-77
2022/10/02 04:20:54;;;;;;;;;;;;;;;9.63;66.43;99324.69;6128269;23;1153;-74
2022/10/02 04:23:21;;;;;;;;;;;;;;;9.63;66.55;99328.19;6152608;23;865;-76
2022/10/02 04:25:48;;;;;;;;;;;;;;;9.62;66.75;99337.31;6154600;23;919;-76
2022/10/02 04:28:14;;;;;;;;;;;;;;;9.63;66.48;99332.75;6153003;23;1003;-75
2022/10/02 04:30:41;;;;;;;;;;;;;;;9.61;66.78;99329.47;6151462;23;864;-76
2022/10/02 04:33:07;;;;;;;;;;;;;;;9.63;66.51;99328.19;6151917;23;1213;-74
2022/10/02 04:35:34;;;;;;;;;;;;;;;9.64;66.42;99329.78;6153534;23;872;-75
2022/10/02 04:38:00;;;;;;;;;;;;;;;9.62;66.64;99337.31;6127068;23;1940;-76
2022/10/02 04:40:27;;;;;;;;;;;;;;;9.64;66.59;99337.84;6152881;23;1091;-76
2022/10/02 04:42:53;;;;;;;;;;;;;;;9.63;66.59;99333.56;6151860;23;932;-75
2022/10/02 04:45:22;;;;;;;;;;;;;;;9.63;66.41;99335.44;6153590;23;927;-75
2022/10/02 04:47:48;;;;;;;;;;;;;;;9.60;66.58;99334.03;6151640;23;884;-76
2022/10/02 04:50:14;;;;;;;;;;;;;;;9.60;66.49;99341.28;6154631;23;888;-75
2022/10/02 04:52:41;;;;;;;;;;;;;;;9.60;66.66;99343.97;6154158;23;817;-76
2022/10/02 04:55:08;;;;;;;;;;;;;;;9.62;66.60;99344.53;6153223;23;967;-76
2022/10/02 04:57:34;;;;;;;;;;;;;;;9.78;66.13;99346.44;6150625;23;3649;-76
2022/10/02 05:00:01;;;;;;;;;;;;;;;9.66;66.29;99351.88;6092447;23;1385;-76
2022/10/02 05:02:27;;;;;;;;;;;;;;;9.65;66.33;99352.16;6093354;23;1031;-76
2022/10/02 05:04:54;;;;;;;;;;;;;;;9.65;66.45;99354.84;6095899;23;1003;-75
2022/10/02 05:07:20;;;;;;;;;;;;;;;9.69;66.18;99356.78;6096091;23;992;-75
2022/10/02 05:09:47;;;;;;;;;;;;;;;9.68;66.18;99359.72;6096128;23;964;-76
2022/10/02 05:12:14;;;;;;;;;;;;;;;9.64;66.46;99356.69;6096587;23;988;-76
2022/10/02 05:14:40;;;;;;;;;;;;;;;9.64;66.44;99358.56;6091505;23;980;-76
2022/10/02 05:17:07;;;;;;;;;;;;;;;9.61;66.41;99367.09;6093988;23;1917;-76
2022/10/02 05:19:35;;;;;;;;;;;;;;;9.67;66.34;99371.50;6098251;23;991;-74
2022/10/02 05:22:02;;;;;;;;;;;;;;;9.18;66.38;99306.69;6100161;23;1268;-76
2022/10/02 05:24:28;;;;;;;;;;;;;;;9.61;66.81;99373.28;6126047;23;940;-76
2022/10/02 05:26:55;;;;;;;;;;;;;;;9.61;66.37;99381.34;6126984;23;1034;-76
2022/10/02 05:29:21;;;;;;;;;;;;;;;9.60;66.46;99378.94;6126423;23;992;-76
2022/10/02 05:31:48;;;;;;;;;;;;;;;9.59;66.52;99380.81;6123366;23;837;-76
2022/10/02 05:34:14;;;;;;;;;;;;;;;9.60;66.30;99389.69;6123173;23;983;-76
2022/10/02 05:36:41;;;;;;;;;;;;;;;9.59;66.61;99388.03;6123684;23;967;-76
2022/10/02 05:39:07;;;;;;;;;;;;;;;9.58;66.47;99387.22;6123968;23;1897;-76
2022/10/02 05:41:34;;;;;;;;;;;;;;;9.58;66.40;99394.47;6124967;23;1007;-76
2022/10/02 05:44:01;;;;;;;;;;;;;;;9.15;66.60;99329.47;6097859;23;952;-76
2022/10/02 05:46:28;;;;;;;;;;;;;;;9.62;66.28;99403.69;6097932;23;1465;-76
2022/10/02 05:48:54;;;;;;;;;;;;;;;9.61;66.32;99407.44;6123511;23;971;-76
2022/10/02 05:51:21;;;;;;;;;;;;;;;9.57;66.55;99407.09;6126094;23;940;-76
2022/10/02 05:53:47;;;;;;;;;;;;;;;9.58;66.35;99410.59;6127375;23;1004;-76
2022/10/02 05:56:14;;;;;;;;;;;;;;;9.58;66.48;99411.41;6128087;23;967;-75
2022/10/02 05:58:40;;;;;;;;;;;;;;;9.59;66.30;99414.91;6101748;23;1897;-76
2022/10/02 06:01:07;;;;;;;;;;;;;;;9.57;66.41;99420.53;6127400;23;975;-76
2022/10/02 06:03:33;;;;;;;;;;;;;;;9.59;66.30;99420.28;6127065;23;835;-76
2022/10/02 06:06:00;;;;;;;;;;;;;;;9.58;66.35;99422.16;6123453;23;832;-76
2022/10/02 06:08:28;;;;;;;;;;;;;;;9.57;66.54;99430.47;6124313;23;947;-76
2022/10/02 06:10:54;;;;;;;;;;;;;;;9.58;66.63;99429.41;6124252;23;1082;-76
2022/10/02 06:13:21;;;;;;;;;;;;;;;9.58;66.37;99440.16;6124796;23;1462;-76
2022/10/02 06:15:48;;;;;;;;;;;;;;;9.55;66.55;99447.66;6126816;23;880;-76
2022/10/02 06:18:14;;;;;;;;;;;;;;;9.56;66.65;99445.81;6126037;23;1897;-76
2022/10/02 06:20:41;;;;;;;;;;;;;;;9.57;66.37;99452.81;6124726;23;964;-76
2022/10/02 06:23:07;;;;;;;;;;;;;;;9.55;66.55;99447.66;6130207;23;1264;-75
2022/10/02 06:25:34;;;;;;;;;;;;;;;9.58;66.52;99454.41;6155794;23;960;-76
2022/10/02 06:28:01;;;;;;;;;;;;;;;9.57;66.34;99449.31;6130241;23;924;-76
2022/10/02 06:30:28;;;;;;;;;;;;;;;9.54;66.52;99456.78;6157328;23;916;-76
2022/10/02 06:32:54;;;;;;;;;;;;;;;9.55;66.34;99455.72;6156505;23;805;-76
2022/10/02 06:35:21;;;;;;;;;;;;;;;9.54;66.44;99455.97;6156924;23;936;-76
2022/10/02 06:37:49;;;;;;;;;;;;;;;9.54;66.38;99462.16;6156956;23;1897;-76
2022/10/02 06:40:16;;;;;;;;;;;;;;;9.53;66.66;99465.91;6157385;23;856;-76
2022/10/02 06:42:42;;;;;;;;;;;;;;;9.57;66.49;99465.44;6156692;23;895;-76
2022/10/02 06:45:09;;;;;;;;;;;;;;;9.53;66.50;99471.28;6153578;23;1296;-77
2022/10/02 06:47:35;;;;;;;;;;;;;;;9.54;66.38;99469.41;6157669;23;796;-76
2022/10/02 06:50:02;;;;;;;;;;;;;;;9.54;66.39;99469.41;6155371;23;1320;-76
2022/10/02 06:52:28;;;;;;;;;;;;;;;9.64;66.33;99477.66;6155690;23;996;-76
2022/10/02 06:54:55;;;;;;;;;;;;;;;9.58;66.32;99484.00;6129953;23;880;-76
2022/10/02 06:57:22;;;;;;;;;;;;;;;9.57;66.27;99487.75;6156265;23;1940;-76
2022/10/02 06:59:48;;;;;;;;;;;;;;;9.57;66.26;99485.06;6154327;23;841;-76
2022/10/02 07:02:16;;;;;;;;;;;;;;;9.64;66.26;99479.53;6154862;23;984;-77
2022/10/02 07:04:42;;;;;;;;;;;;;;;9.61;66.14;99488.06;6155675;23;928;-77
2022/10/02 07:07:09;;;;;;;;;;;;;;;9.57;66.33;99486.94;6155149;23;868;-77
2022/10/02 07:09:35;;;;;;;;;;;;;;;9.57;66.29;99485.06;6128337;23;964;-76
2022/10/02 07:12:03;;;;;;;;;;;;;;;9.54;66.32;99490.91;6128115;23;1342;-77
2022/10/02 07:14:29;;;;;;;;;;;;;;;9.58;66.55;99499.31;6125690;23;873;-76
2022/10/02 07:16:56;;;;;;;;;;;;;;;9.60;66.19;99495.31;6126943;23;837;-77
2022/10/02 07:19:23;;;;;;;;;;;;;;;9.60;66.23;99502.59;6153697;23;1988;-77
2022/10/02 07:21:49;;;;;;;;;;;;;;;9.60;66.20;99511.47;6154549;23;876;-77
2022/10/02 07:24:15;;;;;;;;;;;;;;;9.58;66.33;99508.19;6128164;23;877;-77
2022/10/02 07:26:42;;;;;;;;;;;;;;;9.65;65.71;99508.88;6156767;23;765;-76
2022/10/02 07:29:09;;;;;;;;;;;;;;;9.71;65.93;99512.50;6154628;23;844;-77
2022/10/02 07:31:35;;;;;;;;;;;;;;;9.62;66.14;99503.97;6127152;23;1248;-77
2022/10/02 07:34:02;;;;;;;;;;;;;;;9.76;65.59;99512.56;6127641;23;1262;-76
2022/10/02 07:36:28;;;;;;;;;;;;;;;9.72;66.03;99516.81;6127273;23;1452;-77
2022/10/02 07:38:55;;;;;;;;;;;;;;;9.62;66.28;99513.91;6154057;23;1896;-77
2022/10/02 07:41:22;;;;;;;;;;;;;;;9.67;65.84;99519.38;6128313;23;837;-77
2022/10/02 07:43:49;;;;;;;;;;;;;;;9.67;65.96;99525.56;6152759;23;1010;-77
2022/10/02 07:46:16;;;;;;;;;;;;;;;9.63;66.21;99523.59;6127712;23;1177;-77
2022/10/02 07:48:42;;;;;;;;;;;;;;;9.66;65.96;99525.81;6126846;23;833;-77
2022/10/02 07:51:45;;;;;;;;;;;;;;;9.60;66.23;99529.47;6128979;23;937;-77
2022/10/02 07:53:55;;;;;;;;;;;;;;;9.74;65.74;99530.84;6124774;23;1509;-77
2022/10/02 07:56:22;;;;;;;;;;;;;;;9.68;65.70;99531.78;6125238;23;1325;-77
2022/10/02 07:58:50;;;;;;;;;;;;;;;9.75;65.69;99533.25;6125674;23;1940;-77
2022/10/02 08:01:17;;;;;;;;;;;;;;;9.82;65.53;99538.50;6153417;23;781;-77
2022/10/02 08:03:43;;;;;;;;;;;;;;;9.69;65.48;99544.97;6121660;23;837;-77
2022/10/02 08:06:10;;;;;;;;;;;;;;;9.78;65.67;99545.41;6149489;23;789;-77
2022/10/02 08:08:38;;;;;;;;;;;;;;;9.69;65.91;99554.91;6155740;23;810;-77
2022/10/02 08:11:04;;;;;;;;;;;;;;;9.95;64.99;99550.88;6128729;23;1308;-77
2022/10/02 08:13:31;;;;;;;;;;;;;;;9.92;65.25;99554.84;6127823;23;1243;-77
2022/10/02 08:15:58;;;;;;;;;;;;;;;9.86;65.12;99563.06;6153688;23;808;-77
2022/10/02 08:18:24;;;;;;;;;;;;;;;9.84;65.18;99559.78;6151439;23;1966;-77
2022/10/02 08:20:51;;;;;;;;;;;;;;;9.90;65.01;99567.72;6155403;23;797;-77
2022/10/02 08:23:19;;;;;;;;;;;;;;;9.86;65.33;99568.44;6155470;23;777;-77
2022/10/02 08:25:46;;;;;;;;;;;;;;;9.84;65.45;99573.22;6129347;23;1297;-77
2022/10/02 08:28:12;;;;;;;;;;;;;;;9.93;64.97;99569.09;6155534;23;805;-77
2022/10/02 08:30:39;;;;;;;;;;;;;;;9.70;65.75;99578.06;6127655;23;1321;-77
2022/10/02 08:33:06;;;;;;;;;;;;;;;9.64;65.97;99576.31;6129467;23;849;-77
2022/10/02 08:35:32;;;;;;;;;;;;;;;9.84;65.40;99579.41;6156901;23;828;-77
2022/10/02 08:37:59;;;;;;;;;;;;;;;9.96;64.98;99577.50;6156334;23;1933;-77
2022/10/02 08:40:27;;;;;;;;;;;;;;;9.82;65.40;99580.72;6155648;23;793;-77
2022/10/02 08:42:54;;;;;;;;;;;;;;;9.92;64.99;99583.63;6129387;23;1365;-77
2022/10/02 08:45:21;;;;;;;;;;;;;;;10.10;64.57;99590.69;6153687;23;844;-77
2022/10/02 08:47:47;;;;;;;;;;;;;;;9.99;64.88;99595.84;6154653;23;846;-77
2022/10/02 08:50:14;;;;;;;;;;;;;;;9.84;65.29;99598.25;6155368;23;821;-77
2022/10/02 08:52:41;;;;;;;;;;;;;;;9.76;65.85;99599.44;6127899;23;857;-77
2022/10/02 08:55:08;;;;;;;;;;;;;;;10.17;64.35;99596.72;6130366;23;1288;-77
2022/10/02 08:57:34;;;;;;;;;;;;;;;10.05;64.66;99599.47;6157162;23;876;-77
2022/10/02 09:00:01;;;;;;;;;;;;;;;9.95;65.07;99607.34;6155569;23;1900;-77
2022/10/02 09:02:27;;;;;;;;;;;;;;;10.35;63.79;99607.34;6157463;23;778;-77
2022/10/02 09:04:59;;;;;;;;;;;;;;;10.24;63.97;99603.63;6129567;23;884;-77
2022/10/02 09:07:26;;;;;;;;;;;;;;;10.24;64.04;99609.00;6157167;23;876;-77
2022/10/02 09:09:53;;;;;;;;;;;;;;;9.89;65.32;99613.69;6155952;23;821;-77
2022/10/02 09:12:20;;;;;;;;;;;;;;;9.80;65.50;99617.81;6156704;23;1265;-77
2022/10/02 09:14:47;;;;;;;;;;;;;;;10.11;64.69;99624.59;6154948;23;964;-77
2022/10/02 09:17:13;;;;;;;;;;;;;;;10.04;64.99;99621.25;6128969;23;896;-77
2022/10/02 09:19:42;;;;;;;;;;;;;;;9.97;65.25;99627.59;6157087;23;1893;-77
2022/10/02 09:22:09;;;;;;;;;;;;;;;9.84;65.46;99625.13;6130416;23;833;-77
2022/10/02 09:24:35;;;;;;;;;;;;;;;9.71;65.97;99633.47;6155799;23;793;-77
2022/10/02 09:27:02;;;;;;;;;;;;;;;9.82;65.55;99629.13;6156995;23;842;-77
2022/10/02 09:29:29;;;;;;;;;;;;;;;9.77;65.79;99635.22;6156162;23;785;-77
2022/10/02 09:31:56;;;;;;;;;;;;;;;10.03;65.23;99641.94;6128867;23;1206;-77
2022/10/02 09:34:22;;;;;;;;;;;;;;;9.80;65.79;99648.19;6154463;23;845;-77
2022/10/02 09:36:49;;;;;;;;;;;;;;;9.72;66.04;99638.59;6156240;23;802;-78
2022/10/02 09:39:17;;;;;;;;;;;;;;;9.71;66.13;99639.66;6156194;23;1927;-77
2022/10/02 09:41:48;;;;;;;;;;;;;;;9.72;66.07;99649.38;6155627;23;852;-77
2022/10/02 09:44:15;;;;;;;;;;;;;;;9.72;66.01;99643.97;6153616;23;774;-77
2022/10/02 09:46:43;;;;;;;;;;;;;;;9.73;66.04;99648.28;6128392;23;1286;-77
2022/10/02 09:49:10;;;;;;;;;;;;;;;9.73;66.03;99648.28;6156999;23;849;-77
2022/10/02 09:51:40;;;;;;;;;;;;;;;9.71;66.16;99645.06;6157058;23;908;-77
2022/10/02 09:54:09;;;;;;;;;;;;;;;9.76;66.05;99647.84;6155878;23;844;-77
2022/10/02 09:56:35;;;;;;;;;;;;;;;9.74;66.28;99646.44;6110402;23;1985;-77
2022/10/02 09:59:02;;;;;;;;;;;;;;;9.73;66.46;99652.88;6125146;23;1975;-77
2022/10/02 10:01:29;;;;;;;;;;;;;;;9.75;66.06;99653.44;6129213;23;1213;-77
2022/10/02 10:03:55;;;;;;;;;;;;;;;9.77;66.04;99649.47;6155055;23;1145;-77
2022/10/02 10:06:22;;;;;;;;;;;;;;;9.77;66.05;99648.66;6156290;23;860;-77
2022/10/02 10:08:48;;;;;;;;;;;;;;;9.78;66.26;99655.66;6158920;23;793;-77
2022/10/02 10:11:15;;;;;;;;;;;;;;;9.77;66.08;99654.84;6132235;23;832;-77
2022/10/02 10:13:41;;;;;;;;;;;;;;;9.82;65.90;99658.69;6130505;23;873;-77
2022/10/02 10:16:10;;;;;;;;;;;;;;;9.83;65.95;99661.16;6158052;23;773;-77
2022/10/02 10:18:38;;;;;;;;;;;;;;;9.83;65.93;99663.03;6157447;23;1933;-77
2022/10/02 10:21:04;;;;;;;;;;;;;;;9.87;65.94;99673.06;6129497;23;884;-77
2022/10/02 10:23:35;;;;;;;;;;;;;;;9.87;65.94;99673.06;6152251;23;836;-77
2022/10/02 10:26:01;;;;;;;;;;;;;;;9.87;65.88;99664.19;6127417;23;837;-77
2022/10/02 10:28:31;;;;;;;;;;;;;;;9.89;65.73;99678.22;6153239;23;821;-77
2022/10/02 10:30:57;;;;;;;;;;;;;;;9.86;65.81;99681.41;6152991;23;859;-77
2022/10/02 10:33:24;;;;;;;;;;;;;;;9.85;66.16;99672.47;6128071;23;818;-77
2022/10/02 10:35:51;;;;;;;;;;;;;;;9.87;66.08;99691.91;6153686;23;875;-77
2022/10/02 10:38:32;;;;;;;;;;;;;;;9.89;66.15;99691.69;6128114;23;1946;-76
2022/10/02 10:40:59;;;;;;;;;;;;;;;9.88;66.10;99687.34;6129957;23;1401;-77
2022/10/02 10:43:25;;;;;;;;;;;;;;;9.88;66.05;99690.03;6125551;23;1196;-77
2022/10/02 10:45:52;;;;;;;;;;;;;;;9.86;66.31;99701.03;6153120;23;793;-77
2022/10/02 10:48:19;;;;;;;;;;;;;;;9.87;66.29;99704.53;6126988;23;1168;-77
2022/10/02 10:50:45;;;;;;;;;;;;;;;9.86;66.40;99705.59;6154538;23;844;-77
2022/10/02 10:53:12;;;;;;;;;;;;;;;9.85;66.28;99710.13;6126762;23;863;-76
2022/10/02 10:55:38;;;;;;;;;;;;;;;9.84;66.41;99705.81;6127127;23;1272;-77
2022/10/02 10:58:05;;;;;;;;;;;;;;;9.84;66.40;99705.81;6152868;23;1348;-77
2022/10/02 11:00:32;;;;;;;;;;;;;;;9.54;66.47;99665.63;6152830;23;1900;-77
2022/10/02 11:02:58;;;;;;;;;;;;;;;9.87;66.50;99712.59;6152242;23;809;-76
2022/10/02 11:05:25;;;;;;;;;;;;;;;9.86;66.37;99713.66;6154200;23;813;-77
2022/10/02 11:07:51;;;;;;;;;;;;;;;9.87;66.55;99713.41;6151726;23;897;-76
2022/10/02 11:10:18;;;;;;;;;;;;;;;9.87;66.55;99718.78;6151478;23;822;-77
2022/10/02 11:12:44;;;;;;;;;;;;;;;9.87;66.47;99723.38;6152872;23;792;-76
2022/10/02 11:15:12;;;;;;;;;;;;;;;9.88;66.34;99728.53;6125425;23;1359;-77
2022/10/02 11:17:38;;;;;;;;;;;;;;;9.88;66.50;99725.84;6153047;23;820;-76
2022/10/02 11:20:05;;;;;;;;;;;;;;;9.88;66.54;99733.06;6152078;23;1960;-76
2022/10/02 11:22:32;;;;;;;;;;;;;;;9.89;66.56;99738.22;6153032;23;829;-77
2022/10/02 11:24:59;;;;;;;;;;;;;;;9.89;66.68;99740.91;6153125;23;848;-76
2022/10/02 11:27:26;;;;;;;;;;;;;;;9.90;66.55;99744.41;6125006;23;1352;-77
2022/10/02 11:29:53;;;;;;;;;;;;;;;9.90;66.61;99745.22;6152028;23;848;-77
2022/10/02 11:32:21;;;;;;;;;;;;;;;9.91;66.60;99744.19;6151853;23;1007;-77
2022/10/02 11:34:48;;;;;;;;;;;;;;;9.92;66.61;99753.88;6150661;23;828;-77
2022/10/02 11:37:14;;;;;;;;;;;;;;;9.91;66.58;99752.25;6153006;23;800;-77
2022/10/02 11:39:41;;;;;;;;;;;;;;;9.93;66.55;99749.31;6151718;23;1931;-77
2022/10/02 11:42:08;;;;;;;;;;;;;;;9.93;66.67;99752.00;6151959;23;769;-77
2022/10/02 11:44:35;;;;;;;;;;;;;;;9.94;66.73;99750.94;6147784;23;843;-77
2022/10/02 11:47:01;;;;;;;;;;;;;;;9.93;66.63;99758.19;6149284;23;820;-77
2022/10/02 11:49:28;;;;;;;;;;;;;;;9.94;66.56;99759.84;6152560;23;733;-77
2022/10/02 11:51:54;;;;;;;;;;;;;;;9.94;66.72;99759.84;6151243;23;825;-77
2022/10/02 11:54:21;;;;;;;;;;;;;;;9.95;66.66;99766.88;6125901;23;821;-77
2022/10/02 11:56:48;;;;;;;;;;;;;;;9.96;66.66;99775.75;6152108;23;726;-77
2022/10/02 11:59:17;;;;;;;;;;;;;;;9.98;66.64;99773.66;6151478;23;1942;-77
2022/10/02 12:01:44;;;;;;;;;;;;;;;9.97;66.55;99780.06;6151945;23;817;-77
2022/10/02 12:04:10;;;;;;;;;;;;;;;9.97;66.54;99780.91;6124863;23;1678;-77
2022/10/02 12:06:37;;;;;;;;;;;;;;;9.97;66.73;99783.59;6152380;23;859;-77
2022/10/02 12:09:05;;;;;;;;;;;;;;;9.99;66.69;99788.72;6152783;23;797;-77
2022/10/02 12:11:32;;;;;;;;;;;;;;;9.99;66.54;99788.72;6124812;23;829;-77
2022/10/02 12:14:00;;;;;;;;;;;;;;;10.00;66.80;99787.69;6123543;23;1264;-77
2022/10/02 12:16:26;;;;;;;;;;;;;;;10.01;66.60;99800.09;6124701;23;1203;-77
2022/10/02 12:18:52;;;;;;;;;;;;;;;10.01;66.73;99800.09;6125496;23;1909;-77
2022/10/02 12:27:02;;;;;;;;;;;;;;;10.17;71.05;99850.47;6122542;23;426;-82
2022/10/02 12:29:29;;;;;;;;;;;;;;;10.22;67.12;99804.84;6125925;23;515;-77
2022/10/02 12:31:55;;;;;;;;;;;;;;;10.19;67.04;99812.59;6122556;23;625;-77
2022/10/02 12:34:23;;;;;;;;;;;;;;;10.13;67.30;99813.53;6098792;23;1284;-77
2022/10/02 12:36:50;;;;;;;;;;;;;;;10.11;67.28;99818.31;6121673;23;501;-77
2022/10/02 12:39:17;;;;;;;;;;;;;;;10.11;67.47;99818.31;6111817;23;1922;-77
2022/10/02 12:41:43;;;;;;;;;;;;;;;10.11;67.44;99815.63;6099367;23;1156;-77
2022/10/02 12:44:10;;;;;;;;;;;;;;;10.09;67.50;99821.25;6096966;23;1309;-77
2022/10/02 12:46:36;;;;;;;;;;;;;;;10.11;67.68;99821.81;6121550;23;601;-77
2022/10/02 12:49:03;;;;;;;;;;;;;;;10.11;67.45;99827.19;6098565;23;660;-76
2022/10/02 12:51:33;;;;;;;;;;;;;;;10.13;67.44;99826.97;6123461;23;544;-76
2022/10/02 12:54:00;;;;;;;;;;;;;;;10.12;67.51;99831.56;6095820;23;1271;-77
2022/10/02 12:56:26;;;;;;;;;;;;;;;9.70;67.67;99764.38;6120178;23;665;-76
2022/10/02 12:58:54;;;;;;;;;;;;;;;10.13;67.52;99835.88;6123159;23;1870;-77
2022/10/02 13:01:20;;;;;;;;;;;;;;;10.15;67.41;99838.34;6099702;23;1047;-77
2022/10/02 13:03:47;;;;;;;;;;;;;;;10.15;67.51;99839.16;6092309;23;785;-76
2022/10/02 13:06:13;;;;;;;;;;;;;;;10.16;67.56;99840.78;6065979;23;1204;-76
2022/10/02 13:08:41;;;;;;;;;;;;;;;10.16;67.58;99846.16;6095649;23;809;-76
2022/10/02 13:11:08;;;;;;;;;;;;;;;10.17;67.42;99844.28;6093406;23;817;-77
2022/10/02 13:13:35;;;;;;;;;;;;;;;10.17;67.63;99842.41;6066360;23;841;-77
2022/10/02 13:16:01;;;;;;;;;;;;;;;10.19;67.73;99852.97;6066217;23;1189;-77
2022/10/02 13:18:27;;;;;;;;;;;;;;;10.19;67.62;99851.06;6092604;23;797;-76